createdAt,value
2023-12-11T00:00:58.562Z,41.05
2023-12-11T00:02:00.629Z,42.43
2023-12-11T00:03:02.619Z,42.45
2023-12-11T00:04:04.952Z,44.40
2023-12-11T00:05:09.810Z,38.98
2023-12-11T00:06:11.974Z,42.58
2023-12-11T00:07:13.998Z,41.50
2023-12-11T00:08:16.001Z,42.05
2023-12-11T00:09:18.010Z,43.58
2023-12-11T00:10:20.094Z,44.58
2023-12-11T00:11:22.122Z,43.83
2023-12-11T00:12:24.084Z,44.20
2023-12-11T00:13:26.081Z,45.55
2023-12-11T00:14:28.028Z,43.88
2023-12-11T00:15:30.056Z,45.48
2023-12-11T00:16:32.055Z,44.10
2023-12-11T00:17:34.602Z,44.08
2023-12-11T00:18:36.930Z,44.53
2023-12-11T00:19:39.007Z,43.73
2023-12-11T00:20:40.998Z,44.15
2023-12-11T00:21:43.195Z,44.35
2023-12-11T00:22:45.225Z,44.62
2023-12-11T00:23:47.480Z,43.67
2023-12-11T00:24:49.527Z,44.45
2023-12-11T00:25:51.496Z,44.65
2023-12-11T00:26:53.534Z,46.05
2023-12-11T00:27:55.553Z,46.20
2023-12-11T00:28:58.548Z,45.90
2023-12-11T00:30:01.599Z,45.85
2023-12-11T00:31:08.220Z,44.27
2023-12-11T00:32:11.374Z,44.92
2023-12-11T00:33:13.558Z,42.47
2023-12-11T00:34:16.099Z,43.22
2023-12-11T00:35:19.550Z,43.48
2023-12-11T00:36:21.593Z,41.28
2023-12-11T00:37:23.564Z,40.92
2023-12-11T00:38:28.353Z,41.95
2023-12-11T00:39:30.376Z,40.78
2023-12-11T00:40:32.386Z,41.67
2023-12-11T00:41:34.465Z,43.37
2023-12-11T00:42:36.479Z,41.58
2023-12-11T00:43:45.029Z,41.75
2023-12-11T00:44:48.535Z,41.17
2023-12-11T00:45:50.533Z,41.40
2023-12-11T00:46:52.495Z,40.85
2023-12-11T00:47:54.961Z,39.43
2023-12-11T00:48:57.218Z,38.73
2023-12-11T00:49:59.416Z,38.52
2023-12-11T00:51:01.473Z,39.28
2023-12-11T00:52:03.609Z,39.15
2023-12-11T00:53:05.591Z,39.37
2023-12-11T00:54:07.565Z,39.90
2023-12-11T00:55:09.879Z,38.57
2023-12-11T00:56:11.894Z,38.08
2023-12-11T00:57:13.957Z,38.08
2023-12-11T00:58:16.054Z,38.37
2023-12-11T00:59:18.149Z,38.00
2023-12-11T01:00:20.163Z,38.78
2023-12-11T01:01:22.161Z,36.10
2023-12-11T01:02:24.170Z,37.77
2023-12-11T01:03:28.791Z,37.33
2023-12-11T01:04:31.015Z,36.72
2023-12-11T01:05:33.072Z,39.97
2023-12-11T01:06:35.096Z,36.53
2023-12-11T01:07:37.088Z,38.90
2023-12-11T01:08:42.083Z,41.87
2023-12-11T01:09:44.062Z,40.80
2023-12-11T01:10:46.190Z,40.07
2023-12-11T01:11:48.208Z,40.73
2023-12-11T01:12:50.291Z,40.57
2023-12-11T01:13:52.274Z,40.43
2023-12-11T01:14:54.269Z,42.02
2023-12-11T01:15:56.247Z,41.65
2023-12-11T01:16:58.272Z,39.80
2023-12-11T01:18:00.397Z,38.38
2023-12-11T01:19:02.575Z,38.87
2023-12-11T01:20:05.398Z,39.87
2023-12-11T01:21:07.531Z,39.00
2023-12-11T01:22:09.636Z,37.67
2023-12-11T01:23:11.737Z,38.32
2023-12-11T01:24:13.814Z,41.02
2023-12-11T01:25:15.839Z,39.30
2023-12-11T01:26:18.205Z,39.83
2023-12-11T01:27:20.166Z,38.97
2023-12-11T01:28:22.153Z,39.77
2023-12-11T01:29:24.205Z,39.68
2023-12-11T01:30:26.170Z,38.57
2023-12-11T01:31:28.204Z,40.50
2023-12-11T01:32:30.261Z,39.45
2023-12-11T01:33:32.438Z,39.15
2023-12-11T01:34:34.505Z,36.65
2023-12-11T01:35:37.523Z,37.55
2023-12-11T01:36:39.702Z,38.23
2023-12-11T01:37:43.400Z,37.13
2023-12-11T01:38:45.824Z,37.30
2023-12-11T01:39:47.921Z,36.90
2023-12-11T01:40:49.976Z,35.80
2023-12-11T01:41:52.137Z,37.30
2023-12-11T01:43:04.284Z,35.82
2023-12-11T01:44:12.846Z,35.25
2023-12-11T01:45:14.883Z,35.78
2023-12-11T01:46:16.926Z,35.90
2023-12-11T01:47:18.940Z,34.20
2023-12-11T01:48:21.089Z,34.05
2023-12-11T01:49:23.189Z,33.78
2023-12-11T01:50:25.199Z,32.23
2023-12-11T01:51:27.444Z,30.13
2023-12-11T01:52:29.393Z,29.13
2023-12-11T01:53:31.724Z,28.88
2023-12-11T01:54:33.772Z,28.35
2023-12-11T01:55:36.971Z,26.70
2023-12-11T01:56:38.964Z,27.00
2023-12-11T01:57:40.948Z,26.30
2023-12-11T01:58:42.965Z,27.03
2023-12-11T01:59:49.408Z,25.78
2023-12-11T02:00:52.465Z,25.65
2023-12-11T02:01:54.794Z,24.60
2023-12-11T02:02:57.000Z,24.15
2023-12-11T02:03:59.219Z,23.92
2023-12-11T02:05:01.488Z,23.22
2023-12-11T02:06:03.621Z,23.13
2023-12-11T02:07:07.583Z,22.70
2023-12-11T02:08:10.150Z,22.95
2023-12-11T02:09:12.354Z,23.77
2023-12-11T02:10:14.329Z,22.38
2023-12-11T02:11:16.395Z,23.05
2023-12-11T02:12:18.369Z,23.15
2023-12-11T02:13:21.615Z,21.97
2023-12-11T02:14:23.998Z,21.32
2023-12-11T02:15:38.934Z,22.60
2023-12-11T02:16:40.887Z,22.27
2023-12-11T02:17:45.864Z,22.62
2023-12-11T02:18:48.030Z,22.38
2023-12-11T02:19:53.073Z,22.75
2023-12-11T02:20:55.032Z,22.00
2023-12-11T02:21:57.000Z,21.93
2023-12-11T02:22:59.293Z,21.63
2023-12-11T02:24:03.379Z,22.52
2023-12-11T02:25:06.063Z,22.18
2023-12-11T02:26:18.486Z,21.80
2023-12-11T02:27:20.597Z,22.30
2023-12-11T02:28:22.775Z,21.78
2023-12-11T02:29:25.387Z,21.63
2023-12-11T02:30:30.497Z,22.02
2023-12-11T02:31:32.503Z,21.33
2023-12-11T02:32:34.538Z,21.43
2023-12-11T02:33:36.623Z,22.05
2023-12-11T02:34:38.810Z,22.33
2023-12-11T02:35:42.649Z,21.83
2023-12-11T02:36:44.699Z,22.18
2023-12-11T02:37:46.684Z,22.52
2023-12-11T02:38:48.728Z,21.82
2023-12-11T02:39:50.730Z,22.13
2023-12-11T02:40:52.691Z,22.72
2023-12-11T02:41:54.680Z,21.27
2023-12-11T02:42:56.873Z,22.68
2023-12-11T02:44:00.158Z,21.90
2023-12-11T02:45:02.257Z,22.78
2023-12-11T02:46:04.512Z,21.15
2023-12-11T02:47:06.624Z,22.27
2023-12-11T02:48:08.816Z,20.95
2023-12-11T02:49:10.922Z,20.33
2023-12-11T02:50:12.966Z,21.18
2023-12-11T02:51:25.248Z,19.73
2023-12-11T02:52:30.037Z,20.88
2023-12-11T02:53:32.026Z,19.62
2023-12-11T02:54:34.126Z,20.07
2023-12-11T02:55:36.075Z,18.38
2023-12-11T02:56:43.695Z,18.23
2023-12-11T02:57:45.648Z,18.70
2023-12-11T02:58:47.657Z,18.95
2023-12-11T02:59:49.712Z,16.70
2023-12-11T03:00:51.732Z,17.43
2023-12-11T03:01:53.781Z,17.93
2023-12-11T03:02:55.848Z,18.25
2023-12-11T03:03:57.873Z,18.27
2023-12-11T03:05:00.048Z,16.93
2023-12-11T03:06:04.697Z,16.08
2023-12-11T03:07:06.778Z,16.18
2023-12-11T03:08:08.754Z,16.03
2023-12-11T03:09:10.706Z,17.20
2023-12-11T03:10:12.719Z,17.08
2023-12-11T03:11:14.907Z,16.70
2023-12-11T03:12:16.931Z,16.62
2023-12-11T03:13:18.919Z,16.42
2023-12-11T03:14:20.870Z,16.62
2023-12-11T03:15:22.864Z,16.40
2023-12-11T03:16:24.831Z,16.25
2023-12-11T03:17:26.857Z,16.82
2023-12-11T03:18:29.028Z,16.70
2023-12-11T03:19:31.213Z,16.43
2023-12-11T03:20:33.194Z,15.95
2023-12-11T03:21:35.186Z,16.52
2023-12-11T03:22:37.176Z,16.67
2023-12-11T03:23:39.745Z,15.80
2023-12-11T03:24:41.833Z,16.57
2023-12-11T03:25:43.831Z,16.85
2023-12-11T03:26:45.782Z,16.12
2023-12-11T03:27:47.868Z,16.23
2023-12-11T03:28:49.877Z,16.63
2023-12-11T03:29:51.878Z,16.88
2023-12-11T03:30:53.868Z,15.38
2023-12-11T03:31:55.838Z,16.07
2023-12-11T03:32:57.850Z,16.53
2023-12-11T03:33:59.924Z,16.18
2023-12-11T03:35:01.992Z,15.85
2023-12-11T03:36:05.195Z,16.18
2023-12-11T03:37:11.208Z,15.82
2023-12-11T03:38:13.202Z,16.37
2023-12-11T03:39:15.640Z,17.43
2023-12-11T03:40:17.669Z,16.30
2023-12-11T03:41:19.808Z,16.98
2023-12-11T03:42:21.795Z,17.58
2023-12-11T03:43:24.249Z,16.78
2023-12-11T03:44:29.280Z,16.85
2023-12-11T03:45:31.348Z,17.22
2023-12-11T03:46:33.327Z,16.55
2023-12-11T03:47:35.492Z,16.38
2023-12-11T03:48:37.633Z,17.45
2023-12-11T03:49:39.828Z,18.23
2023-12-11T03:50:42.198Z,17.55
2023-12-11T03:51:44.774Z,17.92
2023-12-11T03:52:46.752Z,17.50
2023-12-11T03:53:48.710Z,17.10
2023-12-11T03:54:50.696Z,18.33
2023-12-11T03:55:54.093Z,18.13
2023-12-11T03:56:56.053Z,17.62
2023-12-11T03:57:58.053Z,18.25
2023-12-11T03:59:00.297Z,17.82
2023-12-11T04:00:04.739Z,18.50
2023-12-11T04:01:06.847Z,19.25
2023-12-11T04:02:09.049Z,19.37
2023-12-11T04:03:11.120Z,19.05
2023-12-11T04:04:13.171Z,18.58
2023-12-11T04:05:15.388Z,18.80
2023-12-11T04:06:17.443Z,18.87
2023-12-11T04:07:19.440Z,18.87
2023-12-11T04:08:21.390Z,18.48
2023-12-11T04:09:23.416Z,18.92
2023-12-11T04:10:25.368Z,19.08
2023-12-11T04:11:27.377Z,19.75
2023-12-11T04:12:29.335Z,19.87
2023-12-11T04:13:31.313Z,19.08
2023-12-11T04:14:33.264Z,19.75
2023-12-11T04:15:38.177Z,20.65
2023-12-11T04:16:43.554Z,19.20
2023-12-11T04:17:45.633Z,18.93
2023-12-11T04:18:47.774Z,19.55
2023-12-11T04:19:49.875Z,19.33
2023-12-11T04:20:51.868Z,19.17
2023-12-11T04:21:53.889Z,19.47
2023-12-11T04:22:55.948Z,20.00
2023-12-11T04:23:57.990Z,20.45
2023-12-11T04:24:59.984Z,19.72
2023-12-11T04:26:02.460Z,19.35
2023-12-11T04:27:04.736Z,20.72
2023-12-11T04:28:07.021Z,20.12
2023-12-11T04:29:09.068Z,19.85
2023-12-11T04:30:11.425Z,19.75
2023-12-11T04:31:13.573Z,19.40
2023-12-11T04:32:15.602Z,19.85
2023-12-11T04:33:17.742Z,19.80
2023-12-11T04:34:19.864Z,19.42
2023-12-11T04:35:21.872Z,19.65
2023-12-11T04:36:23.821Z,19.48
2023-12-11T04:37:25.781Z,18.82
2023-12-11T04:38:27.765Z,19.82
2023-12-11T04:39:29.766Z,19.03
2023-12-11T04:40:31.922Z,18.33
2023-12-11T04:41:33.911Z,17.38
2023-12-11T04:42:35.895Z,17.52
2023-12-11T04:43:37.937Z,17.60
2023-12-11T04:44:40.507Z,16.35
2023-12-11T04:45:42.532Z,16.85
2023-12-11T04:46:44.572Z,16.78
2023-12-11T04:47:46.661Z,16.22
2023-12-11T04:48:48.788Z,15.45
2023-12-11T04:49:50.997Z,16.57
2023-12-11T04:50:53.093Z,15.85
2023-12-11T04:51:55.261Z,16.85
2023-12-11T04:52:57.212Z,15.85
2023-12-11T04:53:59.897Z,16.27
2023-12-11T04:55:02.177Z,16.05
2023-12-11T04:56:08.205Z,16.00
2023-12-11T04:57:10.542Z,15.50
2023-12-11T04:58:12.596Z,16.90
2023-12-11T04:59:14.594Z,15.98
2023-12-11T05:00:18.221Z,15.62
2023-12-11T05:01:20.280Z,16.60
2023-12-11T05:02:22.401Z,16.33
2023-12-11T05:03:24.353Z,16.98
2023-12-11T05:04:27.512Z,16.73
2023-12-11T05:05:29.516Z,17.25
2023-12-11T05:06:31.479Z,16.97
2023-12-11T05:07:33.465Z,17.30
2023-12-11T05:08:35.452Z,16.90
2023-12-11T05:09:37.562Z,17.15
2023-12-11T05:10:39.524Z,17.40
2023-12-11T05:11:41.624Z,16.97
2023-12-11T05:12:43.681Z,16.37
2023-12-11T05:13:45.668Z,16.45
2023-12-11T05:14:47.675Z,16.25
2023-12-11T05:15:49.674Z,15.77
2023-12-11T05:16:51.653Z,15.02
2023-12-11T05:17:54.150Z,14.50
2023-12-11T05:18:56.271Z,14.63
2023-12-11T05:19:58.354Z,15.70
2023-12-11T05:21:06.767Z,15.32
2023-12-11T05:22:08.805Z,14.35
2023-12-11T05:23:10.840Z,14.63
2023-12-11T05:24:12.969Z,14.10
2023-12-11T05:25:15.283Z,14.75
2023-12-11T05:26:20.691Z,15.18
2023-12-11T05:27:25.486Z,15.52
2023-12-11T05:28:27.468Z,15.23
2023-12-11T05:29:29.464Z,16.02
2023-12-11T05:30:34.295Z,15.98
2023-12-11T05:31:36.363Z,15.95
2023-12-11T05:32:40.243Z,15.48
2023-12-11T05:33:42.492Z,15.12
2023-12-11T05:34:45.000Z,15.18
2023-12-11T05:35:47.038Z,14.85
2023-12-11T05:36:49.131Z,16.08
2023-12-11T05:37:51.145Z,15.75
2023-12-11T05:38:53.126Z,15.62
2023-12-11T05:40:01.751Z,16.52
2023-12-11T05:41:17.048Z,16.22
2023-12-11T05:42:19.017Z,16.88
2023-12-11T05:43:20.996Z,17.07
2023-12-11T05:44:23.019Z,17.53
2023-12-11T05:45:24.993Z,17.65
2023-12-11T05:46:27.074Z,17.07
2023-12-11T05:47:29.332Z,18.08
2023-12-11T05:48:31.697Z,18.10
2023-12-11T05:49:33.885Z,18.03
2023-12-11T05:50:37.138Z,18.18
2023-12-11T05:51:40.426Z,18.68
2023-12-11T05:52:42.555Z,18.80
2023-12-11T05:53:44.593Z,18.47
2023-12-11T05:54:46.612Z,18.23
2023-12-11T05:55:48.565Z,18.82
2023-12-11T05:56:50.580Z,19.30
2023-12-11T05:57:52.608Z,19.45
2023-12-11T05:58:55.776Z,18.80
2023-12-11T05:59:57.797Z,19.82
2023-12-11T06:00:59.800Z,19.55
2023-12-11T06:02:01.915Z,19.57
2023-12-11T06:03:03.923Z,20.05
2023-12-11T06:04:06.018Z,19.53
2023-12-11T06:05:09.666Z,20.17
2023-12-11T06:06:18.031Z,20.05
2023-12-11T06:07:19.982Z,20.05
2023-12-11T06:08:21.937Z,19.43
2023-12-11T06:09:23.918Z,19.95
2023-12-11T06:10:25.950Z,21.05
2023-12-11T06:11:27.992Z,21.00
2023-12-11T06:12:29.989Z,21.23
2023-12-11T06:13:35.079Z,21.50
2023-12-11T06:14:40.779Z,20.72
2023-12-11T06:15:42.912Z,20.90
2023-12-11T06:16:47.917Z,21.67
2023-12-11T06:17:50.045Z,21.70
2023-12-11T06:18:52.208Z,22.78
2023-12-11T06:19:54.344Z,22.82
2023-12-11T06:21:02.572Z,23.50
2023-12-11T06:22:05.589Z,23.18
2023-12-11T06:23:07.633Z,24.40
2023-12-11T06:24:09.625Z,24.65
2023-12-11T06:25:11.633Z,24.93
2023-12-11T06:26:43.864Z,24.10
2023-12-11T06:27:45.957Z,24.12
2023-12-11T06:28:47.940Z,22.03
2023-12-11T06:29:49.973Z,22.63
2023-12-11T06:30:52.495Z,22.93
2023-12-11T06:31:54.486Z,22.83
2023-12-11T06:32:56.530Z,23.13
2023-12-11T06:33:58.698Z,24.63
2023-12-11T06:35:00.839Z,24.02
2023-12-11T06:36:02.929Z,24.75
2023-12-11T06:37:05.157Z,24.22
2023-12-11T06:38:07.499Z,24.65
2023-12-11T06:39:09.503Z,24.58
2023-12-11T06:40:11.775Z,25.43
2023-12-11T06:41:13.777Z,25.28
2023-12-11T06:42:15.803Z,25.90
2023-12-11T06:43:17.781Z,24.75
2023-12-11T06:44:19.732Z,24.30
2023-12-11T06:45:21.667Z,26.17
2023-12-11T06:46:23.717Z,24.78
2023-12-11T06:47:25.737Z,25.23
2023-12-11T06:48:27.745Z,25.45
2023-12-11T06:49:29.855Z,25.20
2023-12-11T06:50:31.970Z,25.23
2023-12-11T06:51:36.252Z,25.27
2023-12-11T06:52:38.304Z,23.63
2023-12-11T06:53:41.168Z,24.62
2023-12-11T06:54:43.412Z,24.68
2023-12-11T06:55:45.362Z,24.18
2023-12-11T06:56:47.329Z,24.33
2023-12-11T06:57:49.373Z,23.10
2023-12-11T06:58:51.386Z,24.20
2023-12-11T06:59:53.736Z,24.20
2023-12-11T07:00:55.899Z,23.72
2023-12-11T07:01:58.046Z,23.97
2023-12-11T07:03:00.189Z,24.48
2023-12-11T07:04:02.623Z,23.73
2023-12-11T07:05:05.190Z,24.33
2023-12-11T07:06:07.697Z,25.08
2023-12-11T07:07:10.561Z,24.58
2023-12-11T07:08:12.621Z,23.62
2023-12-11T07:09:15.047Z,23.78
2023-12-11T07:10:17.049Z,24.03
2023-12-11T07:11:19.162Z,24.48
2023-12-11T07:12:21.158Z,24.72
2023-12-11T07:13:23.145Z,24.77
2023-12-11T07:14:25.435Z,25.20
2023-12-11T07:15:27.521Z,24.70
2023-12-11T07:16:29.471Z,25.62
2023-12-11T07:17:33.618Z,24.87
2023-12-11T07:18:37.811Z,25.60
2023-12-11T07:19:39.967Z,24.98
2023-12-11T07:20:42.731Z,24.13
2023-12-11T07:21:44.775Z,24.38
2023-12-11T07:22:47.296Z,25.17
2023-12-11T07:23:49.786Z,24.93
2023-12-11T07:24:51.895Z,25.15
2023-12-11T07:25:54.219Z,25.82
2023-12-11T07:26:56.311Z,25.67
2023-12-11T07:27:58.307Z,25.58
2023-12-11T07:29:01.296Z,26.47
2023-12-11T07:30:03.328Z,26.47
2023-12-11T07:31:06.935Z,27.12
2023-12-11T07:32:09.128Z,26.92
2023-12-11T07:33:11.221Z,27.77
2023-12-11T07:34:13.429Z,27.30
2023-12-11T07:35:15.714Z,25.92
2023-12-11T07:36:18.261Z,27.83
2023-12-11T07:37:20.312Z,28.35
2023-12-11T07:38:24.620Z,27.35
2023-12-11T07:39:26.568Z,26.52
2023-12-11T07:40:28.618Z,26.05
2023-12-11T07:41:33.694Z,26.48
2023-12-11T07:42:38.618Z,25.68
2023-12-11T07:43:40.597Z,25.30
2023-12-11T07:44:42.610Z,25.85
2023-12-11T07:45:44.625Z,25.87
2023-12-11T07:46:46.599Z,26.38
2023-12-11T07:47:48.716Z,25.53
2023-12-11T07:48:50.832Z,24.15
2023-12-11T07:49:52.987Z,24.55
2023-12-11T07:50:54.998Z,24.53
2023-12-11T07:51:57.029Z,24.87
2023-12-11T07:52:59.149Z,25.30
2023-12-11T07:54:01.102Z,25.20
2023-12-11T07:55:03.179Z,25.78
2023-12-11T07:56:05.521Z,25.07
2023-12-11T07:57:07.492Z,25.98
2023-12-11T07:58:09.576Z,24.93
2023-12-11T07:59:11.644Z,24.45
2023-12-11T08:00:15.251Z,24.47
2023-12-11T08:01:17.439Z,24.17
2023-12-11T08:02:19.594Z,24.13
2023-12-11T08:03:21.592Z,24.30
2023-12-11T08:04:23.695Z,24.27
2023-12-11T08:05:25.798Z,24.68
2023-12-11T08:06:28.988Z,24.32
2023-12-11T08:07:31.348Z,24.98
2023-12-11T08:08:33.499Z,24.72
2023-12-11T08:09:40.476Z,24.63
2023-12-11T08:10:42.687Z,25.00
2023-12-11T08:11:44.703Z,24.70
2023-12-11T08:12:55.574Z,24.00
2023-12-11T08:13:58.879Z,24.17
2023-12-11T08:15:00.974Z,23.40
2023-12-11T08:16:03.194Z,24.18
2023-12-11T08:17:06.058Z,23.85
2023-12-11T08:18:08.063Z,25.08
2023-12-11T08:19:10.188Z,24.35
2023-12-11T08:20:13.650Z,24.58
2023-12-11T08:21:18.832Z,24.07
2023-12-11T08:22:20.870Z,24.15
2023-12-11T08:23:23.106Z,23.48
2023-12-11T08:24:25.169Z,23.12
2023-12-11T08:25:27.142Z,23.93
2023-12-11T08:26:29.143Z,24.33
2023-12-11T08:27:31.344Z,23.75
2023-12-11T08:28:33.487Z,24.02
2023-12-11T08:29:36.334Z,23.37
2023-12-11T08:30:38.371Z,24.48
2023-12-11T08:31:40.343Z,24.70
2023-12-11T08:32:42.531Z,24.98
2023-12-11T08:33:45.086Z,25.62
2023-12-11T08:34:47.307Z,24.07
2023-12-11T08:35:49.326Z,24.12
2023-12-11T08:36:51.294Z,23.65
2023-12-11T08:37:53.960Z,23.73
2023-12-11T08:38:55.936Z,25.45
2023-12-11T08:39:58.097Z,24.73
2023-12-11T08:41:00.086Z,24.77
2023-12-11T08:42:02.053Z,24.88
2023-12-11T08:43:04.846Z,25.08
2023-12-11T08:44:07.182Z,25.50
2023-12-11T08:45:10.003Z,25.52
2023-12-11T08:46:12.187Z,25.60
2023-12-11T08:47:14.178Z,26.08
2023-12-11T08:48:16.229Z,25.17
2023-12-11T08:49:18.619Z,25.17
2023-12-11T08:50:20.928Z,25.67
2023-12-11T08:51:23.061Z,25.93
2023-12-11T08:52:25.060Z,26.07
2023-12-11T08:53:27.049Z,25.90
2023-12-11T08:54:30.704Z,26.10
2023-12-11T08:55:32.703Z,25.80
2023-12-11T08:56:34.712Z,26.73
2023-12-11T08:57:36.857Z,25.80
2023-12-11T08:58:38.904Z,26.77
2023-12-11T08:59:40.952Z,26.80
2023-12-11T09:00:43.461Z,27.23
2023-12-11T09:01:45.531Z,26.18
2023-12-11T09:02:47.599Z,26.03
2023-12-11T09:03:49.945Z,27.20
2023-12-11T09:04:55.046Z,27.53
2023-12-11T09:05:57.687Z,28.03
2023-12-11T09:07:00.430Z,27.50
2023-12-11T09:08:02.593Z,26.95
2023-12-11T09:09:07.293Z,26.23
2023-12-11T09:10:09.833Z,27.62
2023-12-11T09:11:11.857Z,27.58
2023-12-11T09:12:23.218Z,27.17
2023-12-11T09:13:33.178Z,26.50
2023-12-11T09:14:35.183Z,26.57
2023-12-11T09:15:37.848Z,26.38
2023-12-11T09:16:39.922Z,25.47
2023-12-11T09:17:42.891Z,25.00
2023-12-11T09:18:45.136Z,25.77
2023-12-11T09:19:54.300Z,25.13
2023-12-11T09:20:57.382Z,25.88
2023-12-11T09:21:59.498Z,26.42
2023-12-11T09:23:01.487Z,26.25
2023-12-11T09:24:05.131Z,26.43
2023-12-11T09:25:07.314Z,24.00
2023-12-11T09:26:09.308Z,25.10
2023-12-11T09:27:11.333Z,24.10
2023-12-11T09:28:13.347Z,24.33
2023-12-11T09:29:18.078Z,23.50
2023-12-11T09:30:20.045Z,24.08
2023-12-11T09:31:22.168Z,22.63
2023-12-11T09:32:26.628Z,23.70
2023-12-11T09:33:28.682Z,23.40
2023-12-11T09:34:30.956Z,23.18
2023-12-11T09:35:33.154Z,23.25
2023-12-11T09:36:35.152Z,23.30
2023-12-11T09:37:37.142Z,22.73
2023-12-11T09:38:39.150Z,23.75
2023-12-11T09:39:41.189Z,23.53
2023-12-11T09:40:43.215Z,24.32
2023-12-11T09:41:46.033Z,24.72
2023-12-11T09:42:48.361Z,24.33
2023-12-11T09:43:52.776Z,23.97
2023-12-11T09:44:55.818Z,24.05
2023-12-11T09:45:57.835Z,24.55
2023-12-11T09:47:09.458Z,24.97
2023-12-11T09:48:14.781Z,26.00
2023-12-11T09:49:18.153Z,26.52
2023-12-11T09:50:22.950Z,26.43
2023-12-11T09:51:25.267Z,25.70
2023-12-11T09:52:27.516Z,25.65
2023-12-11T09:53:31.436Z,25.97
2023-12-11T09:54:33.427Z,24.93
2023-12-11T09:55:35.846Z,26.40
2023-12-11T09:56:37.857Z,26.07
2023-12-11T09:57:41.088Z,26.53
2023-12-11T09:58:43.946Z,27.08
2023-12-11T09:59:47.196Z,26.18
2023-12-11T10:00:49.386Z,26.63
2023-12-11T10:01:51.698Z,26.08
2023-12-11T10:02:54.325Z,25.35
2023-12-11T10:03:56.353Z,26.50
2023-12-11T10:05:09.526Z,27.67
2023-12-11T10:06:11.723Z,27.60
2023-12-11T10:07:13.837Z,27.33
2023-12-11T10:08:17.384Z,26.82
2023-12-11T10:09:40.061Z,27.20
2023-12-11T10:10:42.058Z,25.75
2023-12-11T10:11:44.249Z,26.33
2023-12-11T10:12:46.844Z,26.18
2023-12-11T10:13:51.133Z,26.23
2023-12-11T10:15:03.481Z,25.33
2023-12-11T10:16:06.714Z,25.88
2023-12-11T10:17:18.106Z,25.68
2023-12-11T10:18:20.212Z,26.42
2023-12-11T10:19:34.764Z,25.78
2023-12-11T10:20:41.046Z,26.38
2023-12-11T10:21:43.407Z,25.08
2023-12-11T10:22:49.082Z,25.00
2023-12-11T10:24:14.712Z,25.87
2023-12-11T10:25:25.554Z,25.23
2023-12-11T10:26:27.836Z,24.05
2023-12-11T10:27:30.090Z,23.83
2023-12-11T10:28:32.919Z,23.68
2023-12-11T10:29:34.983Z,23.87
2023-12-11T10:30:49.565Z,23.83
2023-12-11T10:31:52.353Z,24.08
2023-12-11T10:32:55.630Z,23.65
2023-12-11T10:33:58.732Z,23.23
2023-12-11T10:35:03.976Z,23.52
2023-12-11T10:36:14.160Z,24.10
2023-12-11T10:37:16.518Z,23.15
2023-12-11T10:38:25.088Z,23.50
2023-12-11T10:39:27.625Z,23.67
2023-12-11T10:40:42.105Z,23.52
2023-12-11T10:41:47.154Z,22.72
2023-12-11T10:42:57.585Z,22.15
2023-12-11T10:44:08.927Z,22.47
2023-12-11T10:45:18.980Z,22.08
2023-12-11T10:46:20.987Z,21.72
2023-12-11T10:47:23.362Z,21.82
2023-12-11T10:48:25.439Z,21.52
2023-12-11T10:49:27.533Z,22.08
2023-12-11T10:50:29.624Z,22.28
2023-12-11T10:51:31.574Z,21.72
2023-12-11T10:52:34.061Z,22.48
2023-12-11T10:53:36.140Z,22.30
2023-12-11T10:54:43.360Z,21.85
2023-12-11T10:55:45.806Z,22.35
2023-12-11T10:56:50.409Z,22.15
2023-12-11T10:57:52.475Z,21.53
2023-12-11T10:58:54.475Z,21.12
2023-12-11T10:59:56.658Z,20.28
2023-12-11T11:01:01.165Z,21.58
2023-12-11T11:02:03.396Z,22.72
2023-12-11T11:03:06.290Z,22.32
2023-12-11T11:04:09.234Z,22.57
2023-12-11T11:05:12.159Z,22.70
2023-12-11T11:06:14.379Z,22.02
2023-12-11T11:07:22.937Z,23.45
2023-12-11T11:08:32.941Z,22.75
2023-12-11T11:10:00.481Z,22.57
2023-12-11T11:11:16.402Z,22.40
2023-12-11T11:12:35.702Z,24.32
2023-12-11T11:14:07.140Z,23.68
2023-12-11T11:15:11.300Z,23.15
2023-12-11T11:16:13.459Z,23.30
2023-12-11T11:17:17.773Z,23.62
2023-12-11T11:18:19.868Z,23.57
2023-12-11T11:19:22.007Z,22.58
2023-12-11T11:20:24.469Z,23.35
2023-12-11T11:21:26.496Z,23.40
2023-12-11T11:22:35.879Z,22.85
2023-12-11T11:23:43.775Z,23.47
2023-12-11T11:24:45.922Z,23.43
2023-12-11T11:25:54.714Z,23.00
2023-12-11T11:26:57.900Z,23.30
2023-12-11T11:28:00.178Z,23.08
2023-12-11T11:29:05.950Z,22.65
2023-12-11T11:30:09.083Z,23.03
2023-12-11T11:31:19.377Z,22.97
2023-12-11T11:32:56.352Z,22.12
2023-12-11T11:34:02.637Z,22.33
2023-12-11T11:35:04.945Z,23.20
2023-12-11T11:36:06.990Z,24.35
2023-12-11T11:37:09.680Z,23.78
2023-12-11T11:38:11.707Z,23.75
2023-12-11T11:39:13.816Z,23.58
2023-12-11T11:40:16.127Z,22.38
2023-12-11T11:41:30.461Z,22.92
2023-12-11T11:42:34.521Z,23.15
2023-12-11T11:43:36.509Z,22.55
2023-12-11T11:44:38.476Z,23.88
2023-12-11T11:45:40.608Z,22.33
2023-12-11T11:46:51.435Z,22.53
2023-12-11T11:47:53.413Z,22.52
2023-12-11T11:48:55.581Z,24.53
2023-12-11T11:50:14.564Z,23.43
2023-12-11T11:51:18.362Z,23.62
2023-12-11T11:52:29.219Z,23.03
2023-12-11T11:53:31.330Z,23.17
2023-12-11T11:54:34.123Z,23.37
2023-12-11T11:55:39.015Z,22.58
2023-12-11T11:56:46.393Z,22.23
2023-12-11T11:57:48.362Z,21.97
2023-12-11T11:58:50.448Z,21.70
2023-12-11T11:59:54.477Z,21.45
2023-12-11T12:01:06.776Z,21.77
2023-12-11T12:02:08.845Z,21.72
2023-12-11T12:03:12.129Z,21.43
2023-12-11T12:04:26.255Z,21.68
2023-12-11T12:05:28.419Z,21.70
2023-12-11T12:06:30.480Z,22.17
2023-12-11T12:07:32.684Z,21.98
2023-12-11T12:08:37.745Z,21.38
2023-12-11T12:09:40.220Z,21.38
2023-12-11T12:10:42.241Z,21.60
2023-12-11T12:11:44.193Z,21.60
2023-12-11T12:12:51.531Z,22.08
2023-12-11T12:13:53.642Z,21.78
2023-12-11T12:15:05.777Z,22.50
2023-12-11T12:16:07.999Z,21.58
2023-12-11T12:17:13.010Z,21.28
2023-12-11T12:18:15.218Z,22.25
2023-12-11T12:19:17.477Z,23.33
2023-12-11T12:20:20.102Z,22.97
2023-12-11T12:21:22.447Z,23.20
2023-12-11T12:22:24.478Z,23.33
2023-12-11T12:23:26.478Z,22.70
2023-12-11T12:24:28.820Z,23.30
2023-12-11T12:25:31.491Z,23.32
2023-12-11T12:26:33.664Z,22.17
2023-12-11T12:27:35.933Z,21.22
2023-12-11T12:28:37.921Z,22.62
2023-12-11T12:29:39.895Z,21.70
2023-12-11T12:30:41.882Z,21.65
2023-12-11T12:31:43.931Z,21.68
2023-12-11T12:32:46.550Z,22.57
2023-12-11T12:33:50.799Z,22.42
2023-12-11T12:34:55.689Z,22.65
2023-12-11T12:35:57.773Z,24.25
2023-12-11T12:37:01.064Z,22.95
2023-12-11T12:38:03.349Z,23.15
2023-12-11T12:39:05.705Z,22.30
2023-12-11T12:40:08.778Z,22.62
2023-12-11T12:41:13.721Z,21.92
2023-12-11T12:42:15.779Z,22.70
2023-12-11T12:43:17.929Z,21.83
2023-12-11T12:44:20.016Z,22.83
2023-12-11T12:45:34.224Z,22.45
2023-12-11T12:46:41.865Z,22.28
2023-12-11T12:47:49.593Z,23.02
2023-12-11T12:48:51.783Z,23.48
2023-12-11T12:49:53.872Z,22.83
2023-12-11T12:51:10.537Z,22.70
2023-12-11T12:52:12.638Z,23.67
2023-12-11T12:53:19.137Z,22.68
2023-12-11T12:54:21.314Z,22.63
2023-12-11T12:55:30.215Z,22.70
2023-12-11T12:56:33.067Z,23.10
2023-12-11T12:57:37.721Z,22.77
2023-12-11T12:58:40.001Z,22.35
2023-12-11T12:59:42.031Z,22.33
2023-12-11T13:00:44.192Z,21.53
2023-12-11T13:01:46.578Z,22.52
2023-12-11T13:02:49.645Z,22.87
2023-12-11T13:03:51.750Z,22.57
2023-12-11T13:04:54.664Z,23.43
2023-12-11T13:05:59.425Z,23.08
2023-12-11T13:07:11.748Z,23.28
2023-12-11T13:08:16.031Z,22.23
2023-12-11T13:09:31.483Z,22.82
2023-12-11T13:10:33.540Z,22.12
2023-12-11T13:11:46.716Z,21.58
2023-12-11T13:12:49.941Z,22.57
2023-12-11T13:13:56.250Z,22.12
2023-12-11T13:14:58.311Z,22.70
2023-12-11T13:16:00.337Z,22.22
2023-12-11T13:17:04.133Z,22.78
2023-12-11T13:18:06.124Z,23.28
2023-12-11T13:19:09.970Z,23.85
2023-12-11T13:20:12.609Z,23.63
2023-12-11T13:21:16.455Z,24.48
2023-12-11T13:22:18.521Z,24.45
2023-12-11T13:23:20.538Z,23.65
2023-12-11T13:24:22.999Z,23.57
2023-12-11T13:25:25.122Z,23.12
2023-12-11T13:26:27.546Z,23.00
2023-12-11T13:27:31.492Z,23.92
2023-12-11T13:28:33.620Z,23.90
2023-12-11T13:29:35.622Z,23.90
2023-12-11T13:30:37.722Z,24.57
2023-12-11T13:31:40.232Z,24.70
2023-12-11T13:32:42.449Z,24.38
2023-12-11T13:33:44.532Z,24.65
2023-12-11T13:34:46.650Z,24.20
2023-12-11T13:35:48.716Z,24.78